Time;durP1;ratioP1;P1;durP2;ratioP2;P2;SDS_P1;SDS_P2;PMS_P1;PMS_P2;Temp;Humidity;BMP_temperature;BMP_pressure;BME280_temperature;BME280_humidity;BME280_pressure;Samples;Min_cycle;Max_cycle;Signal;HPM_P1;HPM_P2
2023/12/05 00:00:09;;;;;;;34.70;19.27;;;;;;;;;;5023493;28;20045;-88
2023/12/05 00:05:47;;;;;;;36.00;19.07;;;;;;;;;;5021535;28;20030;-89
2023/12/05 00:08:17;;;;;;;37.07;19.77;;;;;;;;;;5030532;28;20018;-88
2023/12/05 00:13:50;;;;;;;37.17;18.50;;;;;;;;;;5029322;28;20044;-89
2023/12/05 00:16:18;;;;;;;36.93;19.87;;;;;;;;;;5030762;28;20006;-89
2023/12/05 00:18:49;;;;;;;36.17;18.93;;;;;;;;;;5033311;28;20058;-86
2023/12/05 00:21:15;;;;;;;37.20;19.53;;;;;;;;;;5032136;28;20030;-84
2023/12/05 00:23:41;;;;;;;38.60;20.70;;;;;;;;;;5028518;28;20477;-84
2023/12/05 00:26:07;;;;;;;38.83;19.23;;;;;;;;;;5027027;28;20120;-86
2023/12/05 00:28:33;;;;;;;36.50;19.73;;;;;;;;;;5042775;28;20465;-85
2023/12/05 00:31:00;;;;;;;41.07;18.77;;;;;;;;;;5026479;28;20025;-84
2023/12/05 00:33:26;;;;;;;34.10;18.90;;;;;;;;;;5023989;28;20059;-86
2023/12/05 00:35:52;;;;;;;38.07;20.23;;;;;;;;;;5018339;28;20025;-82
2023/12/05 00:38:18;;;;;;;35.43;18.30;;;;;;;;;;5021438;28;20698;-85
2023/12/05 00:40:44;;;;;;;39.03;19.60;;;;;;;;;;5017244;28;20069;-82
2023/12/05 00:43:12;;;;;;;30.77;17.87;;;;;;;;;;5036381;28;20045;-85
2023/12/05 00:45:38;;;;;;;34.27;18.07;;;;;;;;;;5020404;28;20089;-84
2023/12/05 00:48:04;;;;;;;33.23;18.90;;;;;;;;;;5020914;28;20495;-84
2023/12/05 00:50:30;;;;;;;37.20;20.67;;;;;;;;;;5046561;28;20056;-87
2023/12/05 00:52:56;;;;;;;34.43;18.93;;;;;;;;;;5023522;28;20025;-85
2023/12/05 00:55:22;;;;;;;36.57;19.53;;;;;;;;;;5024446;28;20029;-85
2023/12/05 00:57:48;;;;;;;38.13;20.40;;;;;;;;;;5040248;28;20762;-84
2023/12/05 01:00:14;;;;;;;35.30;18.43;;;;;;;;;;5020678;28;20037;-81
2023/12/05 01:02:40;;;;;;;43.47;20.57;;;;;;;;;;5021241;28;20033;-81
2023/12/05 01:05:09;;;;;;;33.60;18.93;;;;;;;;;;5038105;28;20103;-83
2023/12/05 01:07:36;;;;;;;38.00;20.17;;;;;;;;;;5019790;28;20041;-85
2023/12/05 01:10:03;;;;;;;36.80;19.10;;;;;;;;;;5021328;28;20030;-81
2023/12/05 01:12:29;;;;;;;35.47;19.47;;;;;;;;;;5019577;28;20033;-83
2023/12/05 01:14:55;;;;;;;35.07;19.10;;;;;;;;;;5020853;28;20116;-82
2023/12/05 01:17:21;;;;;;;34.30;18.47;;;;;;;;;;5019514;28;20075;-83
2023/12/05 01:19:47;;;;;;;34.57;18.77;;;;;;;;;;5019436;28;20275;-82
2023/12/05 01:22:13;;;;;;;38.30;19.73;;;;;;;;;;5017040;28;20064;-81
2023/12/05 01:24:41;;;;;;;37.23;19.83;;;;;;;;;;5017631;28;20041;-83
2023/12/05 01:27:07;;;;;;;34.80;18.87;;;;;;;;;;5021001;28;20036;-85
2023/12/05 01:29:33;;;;;;;45.23;21.93;;;;;;;;;;5037927;28;20025;-83
2023/12/05 01:31:59;;;;;;;38.90;21.10;;;;;;;;;;5020077;28;20037;-86
2023/12/05 01:34:25;;;;;;;40.23;19.90;;;;;;;;;;5020775;28;20026;-85
2023/12/05 01:36:51;;;;;;;37.17;19.20;;;;;;;;;;5023040;28;20039;-83
2023/12/05 01:39:17;;;;;;;35.17;19.30;;;;;;;;;;5020952;28;20039;-85
2023/12/05 01:41:43;;;;;;;35.07;19.50;;;;;;;;;;5021187;28;20528;-86
2023/12/05 01:44:09;;;;;;;44.80;21.33;;;;;;;;;;5018655;28;20029;-83
2023/12/05 01:46:36;;;;;;;29.17;17.33;;;;;;;;;;5021711;28;20133;-85
2023/12/05 01:49:02;;;;;;;31.27;17.67;;;;;;;;;;5019469;28;20035;-83
2023/12/05 01:51:29;;;;;;;38.73;19.60;;;;;;;;;;5020016;28;20033;-83
2023/12/05 01:53:56;;;;;;;37.10;20.23;;;;;;;;;;5019940;28;20585;-84
2023/12/05 01:56:22;;;;;;;39.00;19.53;;;;;;;;;;5022034;28;20030;-85
2023/12/05 01:58:48;;;;;;;32.13;17.83;;;;;;;;;;5021204;28;20076;-82
2023/12/05 02:01:17;;;;;;;33.77;19.80;;;;;;;;;;5020866;28;20128;-84
2023/12/05 02:03:47;;;;;;;38.63;18.90;;;;;;;;;;5020975;28;20117;-84
2023/12/05 02:06:13;;;;;;;36.33;18.93;;;;;;;;;;5037598;28;20032;-82
2023/12/05 02:08:40;;;;;;;33.47;19.30;;;;;;;;;;5020560;28;20064;-87
2023/12/05 02:11:06;;;;;;;34.90;19.00;;;;;;;;;;5020446;28;20127;-84
2023/12/05 02:13:35;;;;;;;34.73;19.23;;;;;;;;;;5020516;28;20032;-82
2023/12/05 02:16:24;;;;;;;38.80;18.73;;;;;;;;;;5020314;28;20040;-86
2023/12/05 02:18:56;;;;;;;34.10;18.67;;;;;;;;;;5020344;28;20100;-81
2023/12/05 02:21:28;;;;;;;33.28;18.95;;;;;;;;;;5035212;28;20034;-84
2023/12/05 02:24:13;;;;;;;37.07;21.27;;;;;;;;;;5020286;28;20029;-81
2023/12/05 02:26:45;;;;;;;31.97;18.00;;;;;;;;;;5018961;28;20267;-83
2023/12/05 02:29:11;;;;;;;33.13;19.55;;;;;;;;;;5038455;28;20025;-82
2023/12/05 02:31:37;;;;;;;36.00;19.10;;;;;;;;;;5019042;28;20060;-81
2023/12/05 02:34:05;;;;;;;36.67;19.53;;;;;;;;;;5018023;28;20056;-82
2023/12/05 02:36:31;;;;;;;33.00;19.00;;;;;;;;;;5017006;28;20060;-85
2023/12/05 02:39:14;;;;;;;34.83;19.07;;;;;;;;;;5016329;28;20029;-81
2023/12/05 02:41:42;;;;;;;37.45;18.23;;;;;;;;;;5034086;28;20021;-81
2023/12/05 02:44:18;;;;;;;39.13;20.17;;;;;;;;;;5029303;28;20032;-80
2023/12/05 02:46:48;;;;;;;38.67;18.63;;;;;;;;;;5013951;28;20022;-83
2023/12/05 02:49:14;;;;;;;35.97;18.73;;;;;;;;;;5028650;28;20021;-82
2023/12/05 02:51:41;;;;;;;34.57;19.40;;;;;;;;;;5019521;28;20459;-82
2023/12/05 02:54:09;;;;;;;34.80;18.10;;;;;;;;;;5035110;28;20108;-81
2023/12/05 02:56:36;;;;;;;37.37;20.10;;;;;;;;;;5020270;28;20115;-80
2023/12/05 02:59:05;;;;;;;34.77;18.97;;;;;;;;;;5015587;28;20111;-83
2023/12/05 03:01:33;;;;;;;33.30;18.00;;;;;;;;;;5015579;28;20164;-81
2023/12/05 03:03:59;;;;;;;33.53;17.07;;;;;;;;;;5015104;28;20119;-83
2023/12/05 03:06:27;;;;;;;35.57;17.67;;;;;;;;;;5016455;28;20029;-82
2023/12/05 03:08:53;;;;;;;32.10;17.17;;;;;;;;;;5014772;28;20037;-79
2023/12/05 03:11:19;;;;;;;29.53;17.53;;;;;;;;;;5029747;28;20029;-81
2023/12/05 03:13:45;;;;;;;32.27;18.00;;;;;;;;;;5019095;28;20071;-81
2023/12/05 03:16:11;;;;;;;29.93;17.07;;;;;;;;;;5018987;28;20029;-80
2023/12/05 03:18:37;;;;;;;30.00;16.83;;;;;;;;;;5028405;28;20461;-79
2023/12/05 03:21:03;;;;;;;31.37;16.47;;;;;;;;;;5036997;28;20029;-80
2023/12/05 03:23:29;;;;;;;28.83;15.80;;;;;;;;;;5019507;28;20308;-81
2023/12/05 03:25:55;;;;;;;29.27;16.67;;;;;;;;;;5017902;28;20026;-82
2023/12/05 03:28:21;;;;;;;30.20;16.57;;;;;;;;;;5033313;28;20457;-82
2023/12/05 03:30:49;;;;;;;30.07;16.30;;;;;;;;;;5031491;28;20109;-81
2023/12/05 03:33:15;;;;;;;29.97;16.30;;;;;;;;;;5016548;28;20057;-81
2023/12/05 03:35:41;;;;;;;29.83;16.17;;;;;;;;;;5028742;28;20063;-83
2023/12/05 03:38:07;;;;;;;30.97;17.23;;;;;;;;;;5018858;28;20029;-81
2023/12/05 03:40:33;;;;;;;27.03;14.67;;;;;;;;;;5018780;28;20050;-80
2023/12/05 03:42:59;;;;;;;26.20;15.50;;;;;;;;;;5017230;28;20040;-80
2023/12/05 03:45:25;;;;;;;31.63;16.97;;;;;;;;;;5018439;28;20068;-82
2023/12/05 03:47:51;;;;;;;27.03;14.47;;;;;;;;;;5019560;28;20022;-80
2023/12/05 03:50:17;;;;;;;25.70;15.17;;;;;;;;;;5017372;28;20043;-81
2023/12/05 03:52:43;;;;;;;28.17;14.43;;;;;;;;;;5017376;28;20033;-79
2023/12/05 03:55:09;;;;;;;25.77;14.63;;;;;;;;;;5029955;28;20040;-82
2023/12/05 03:57:35;;;;;;;30.87;15.33;;;;;;;;;;5016436;28;20025;-82
2023/12/05 04:00:01;;;;;;;27.37;14.47;;;;;;;;;;5019422;28;20572;-79
2023/12/05 04:02:27;;;;;;;24.13;14.73;;;;;;;;;;5018441;28;20033;-84
2023/12/05 04:04:53;;;;;;;29.40;14.60;;;;;;;;;;5019749;28;20097;-80
2023/12/05 04:07:19;;;;;;;28.90;14.60;;;;;;;;;;5014917;28;20032;-81
2023/12/05 04:09:46;;;;;;;22.37;13.23;;;;;;;;;;5017478;28;20104;-81
2023/12/05 04:12:12;;;;;;;25.80;14.63;;;;;;;;;;5036696;28;20064;-81
2023/12/05 04:14:41;;;;;;;25.00;13.43;;;;;;;;;;5026428;28;20453;-83
2023/12/05 04:17:07;;;;;;;23.50;13.67;;;;;;;;;;5036195;28;20068;-82
2023/12/05 04:19:35;;;;;;;23.03;14.00;;;;;;;;;;5018028;28;20077;-83
2023/12/05 04:22:01;;;;;;;21.87;13.60;;;;;;;;;;5016893;28;20037;-83
2023/12/05 04:24:27;;;;;;;24.37;13.40;;;;;;;;;;5035817;28;20908;-83
2023/12/05 04:26:53;;;;;;;22.10;13.30;;;;;;;;;;5035176;28;20021;-84
2023/12/05 04:29:19;;;;;;;21.13;13.00;;;;;;;;;;5020515;28;20128;-84
2023/12/05 04:31:45;;;;;;;25.03;13.23;;;;;;;;;;5018565;28;20065;-86
2023/12/05 04:34:11;;;;;;;20.60;12.13;;;;;;;;;;5019599;28;20099;-81
2023/12/05 04:36:37;;;;;;;23.37;12.07;;;;;;;;;;5022916;28;20037;-81
2023/12/05 04:39:05;;;;;;;23.43;12.23;;;;;;;;;;5023859;28;20119;-80
2023/12/05 04:41:33;;;;;;;22.87;12.30;;;;;;;;;;5028054;28;20018;-81
2023/12/05 04:43:59;;;;;;;21.47;12.37;;;;;;;;;;5050025;28;20017;-82
2023/12/05 04:46:25;;;;;;;20.47;12.03;;;;;;;;;;5048189;28;20037;-81
2023/12/05 04:48:51;;;;;;;20.77;12.20;;;;;;;;;;5052750;28;20029;-84
2023/12/05 04:51:21;;;;;;;20.13;11.67;;;;;;;;;;5033137;28;20065;-82
2023/12/05 04:53:46;;;;;;;21.43;12.20;;;;;;;;;;5036947;28;20021;-80
2023/12/05 04:56:12;;;;;;;22.87;12.77;;;;;;;;;;5028266;28;20053;-82
2023/12/05 04:58:39;;;;;;;21.03;11.27;;;;;;;;;;5031004;28;20017;-81
2023/12/05 05:01:05;;;;;;;23.33;12.60;;;;;;;;;;5021319;28;20026;-80
2023/12/05 05:03:30;;;;;;;18.03;11.77;;;;;;;;;;5035303;28;20096;-80
2023/12/05 05:05:56;;;;;;;18.37;10.63;;;;;;;;;;5044214;28;20033;-83
2023/12/05 05:08:22;;;;;;;23.00;12.00;;;;;;;;;;5052059;28;20029;-81
2023/12/05 05:10:48;;;;;;;26.17;13.50;;;;;;;;;;5034256;28;20438;-80
2023/12/05 05:13:14;;;;;;;20.70;12.13;;;;;;;;;;5041991;28;20029;-81
2023/12/05 05:15:40;;;;;;;20.80;12.23;;;;;;;;;;5023631;28;20029;-80
2023/12/05 05:18:06;;;;;;;19.97;11.17;;;;;;;;;;5042403;28;20032;-81
2023/12/05 05:20:32;;;;;;;20.13;10.77;;;;;;;;;;5028522;28;20063;-81
2023/12/05 05:22:58;;;;;;;17.70;10.67;;;;;;;;;;5029403;28;20060;-81
2023/12/05 05:25:24;;;;;;;21.90;11.50;;;;;;;;;;5021451;28;20017;-80
2023/12/05 05:27:50;;;;;;;20.63;12.03;;;;;;;;;;5022447;28;20009;-80
2023/12/05 05:30:16;;;;;;;16.13;10.63;;;;;;;;;;5027515;28;20029;-81
2023/12/05 05:32:42;;;;;;;17.87;11.10;;;;;;;;;;5047063;28;20121;-81
2023/12/05 05:35:08;;;;;;;15.53;10.43;;;;;;;;;;5046881;28;20030;-81
2023/12/05 05:37:34;;;;;;;18.57;10.97;;;;;;;;;;5045671;28;20099;-81
2023/12/05 05:40:00;;;;;;;21.20;10.90;;;;;;;;;;5010925;28;20030;-80
2023/12/05 05:42:26;;;;;;;16.20;10.37;;;;;;;;;;5014939;28;20030;-82
2023/12/05 05:44:52;;;;;;;17.60;10.33;;;;;;;;;;5027914;28;20040;-81
2023/12/05 05:47:18;;;;;;;16.37;10.70;;;;;;;;;;5028591;28;20021;-80
2023/12/05 05:49:44;;;;;;;17.70;10.50;;;;;;;;;;5023793;28;20018;-80
2023/12/05 05:52:10;;;;;;;20.27;10.53;;;;;;;;;;5014357;28;20037;-80
2023/12/05 05:54:36;;;;;;;17.33;10.83;;;;;;;;;;5026493;28;20576;-81
2023/12/05 05:57:02;;;;;;;15.83;11.23;;;;;;;;;;5022238;28;20075;-80
2023/12/05 05:59:28;;;;;;;17.43;10.53;;;;;;;;;;5017247;28;20045;-80
2023/12/05 06:01:54;;;;;;;18.90;9.83;;;;;;;;;;5018331;28;20026;-80
2023/12/05 06:04:20;;;;;;;14.20;9.57;;;;;;;;;;5019425;28;20441;-80
2023/12/05 06:06:46;;;;;;;14.63;9.70;;;;;;;;;;5023798;28;20026;-80
2023/12/05 06:09:12;;;;;;;17.63;10.83;;;;;;;;;;5018194;28;20026;-81
2023/12/05 06:11:38;;;;;;;16.77;10.30;;;;;;;;;;5020901;28;20030;-80
2023/12/05 06:14:04;;;;;;;17.63;10.30;;;;;;;;;;5022092;28;20030;-80
2023/12/05 06:16:30;;;;;;;16.13;10.10;;;;;;;;;;5008899;28;20026;-80
2023/12/05 06:18:56;;;;;;;21.63;10.43;;;;;;;;;;5016813;28;20116;-80
2023/12/05 06:21:22;;;;;;;22.33;14.90;;;;;;;;;;5019218;28;20033;-81
2023/12/05 06:23:51;;;;;;;23.67;16.20;;;;;;;;;;5015740;28;20438;-79
2023/12/05 06:26:18;;;;;;;25.73;16.47;;;;;;;;;;5034615;28;20465;-80
2023/12/05 06:28:44;;;;;;;23.60;16.73;;;;;;;;;;5017046;28;20022;-79
2023/12/05 06:31:10;;;;;;;24.77;15.77;;;;;;;;;;5030685;28;20104;-80
2023/12/05 06:33:36;;;;;;;25.13;16.83;;;;;;;;;;5016165;28;20043;-79
2023/12/05 06:36:02;;;;;;;29.70;18.63;;;;;;;;;;5013412;28;20618;-80
2023/12/05 06:38:28;;;;;;;22.37;15.97;;;;;;;;;;5016398;28;20026;-80
2023/12/05 06:40:54;;;;;;;22.10;15.23;;;;;;;;;;5015772;28;20094;-80
2023/12/05 06:43:20;;;;;;;23.33;15.07;;;;;;;;;;5017239;28;20033;-80
2023/12/05 06:45:46;;;;;;;19.07;12.40;;;;;;;;;;5028996;28;20033;-79
2023/12/05 06:48:12;;;;;;;19.20;12.10;;;;;;;;;;5017482;28;20045;-79
2023/12/05 06:50:38;;;;;;;17.20;11.77;;;;;;;;;;5019653;28;20168;-79
2023/12/05 06:53:04;;;;;;;19.37;10.80;;;;;;;;;;5037148;28;20029;-79
2023/12/05 06:55:31;;;;;;;11.97;8.30;;;;;;;;;;5036785;28;20466;-79
2023/12/05 06:57:57;;;;;;;11.50;8.00;;;;;;;;;;5018962;28;20041;-80
2023/12/05 07:00:24;;;;;;;10.43;7.20;;;;;;;;;;5019839;28;20041;-79
2023/12/05 07:02:50;;;;;;;11.20;7.47;;;;;;;;;;5019387;28;20128;-79
2023/12/05 07:05:16;;;;;;;11.03;7.50;;;;;;;;;;5017226;28;20052;-79
2023/12/05 07:07:42;;;;;;;11.40;7.50;;;;;;;;;;5037196;28;20040;-79
2023/12/05 07:10:08;;;;;;;12.53;7.70;;;;;;;;;;5018830;28;20446;-79
2023/12/05 07:12:34;;;;;;;9.63;7.23;;;;;;;;;;5019893;28;20033;-79
2023/12/05 07:15:00;;;;;;;10.87;7.93;;;;;;;;;;5021514;28;20466;-79
2023/12/05 07:17:26;;;;;;;10.87;7.73;;;;;;;;;;5018625;28;20036;-80
2023/12/05 07:19:52;;;;;;;14.27;7.17;;;;;;;;;;5020413;28;20029;-79
2023/12/05 07:22:18;;;;;;;11.50;6.80;;;;;;;;;;5020084;28;20057;-80
2023/12/05 07:24:44;;;;;;;10.40;7.67;;;;;;;;;;5018861;28;20033;-80
2023/12/05 07:27:09;;;;;;;10.07;6.57;;;;;;;;;;5017203;28;20029;-79
2023/12/05 07:29:35;;;;;;;11.60;6.87;;;;;;;;;;5019684;28;20407;-79
2023/12/05 07:32:01;;;;;;;10.70;7.07;;;;;;;;;;5019179;28;20029;-80
2023/12/05 07:34:27;;;;;;;11.80;7.57;;;;;;;;;;5018852;28;20484;-80
2023/12/05 07:36:53;;;;;;;9.67;7.07;;;;;;;;;;5018207;28;20029;-80
2023/12/05 07:39:22;;;;;;;11.00;6.80;;;;;;;;;;5017792;28;20068;-79
2023/12/05 07:41:49;;;;;;;10.63;7.30;;;;;;;;;;5035522;28;20057;-79
2023/12/05 07:44:17;;;;;;;9.77;6.70;;;;;;;;;;5017409;28;20036;-80
2023/12/05 07:46:43;;;;;;;9.27;6.67;;;;;;;;;;5021818;28;20068;-80
2023/12/05 07:49:09;;;;;;;12.87;5.93;;;;;;;;;;5019513;28;20029;-80
2023/12/05 07:51:37;;;;;;;12.90;6.07;;;;;;;;;;5038248;28;20088;-80
2023/12/05 07:54:05;;;;;;;10.13;6.43;;;;;;;;;;5018499;28;20029;-80
2023/12/05 07:56:31;;;;;;;10.77;6.70;;;;;;;;;;5019041;28;20029;-80
2023/12/05 07:58:57;;;;;;;10.37;6.90;;;;;;;;;;5020157;28;20041;-80
2023/12/05 08:01:23;;;;;;;13.57;6.53;;;;;;;;;;5021891;28;20151;-79
2023/12/05 08:03:49;;;;;;;10.53;6.90;;;;;;;;;;5022137;28;20034;-80
2023/12/05 08:06:15;;;;;;;13.23;7.77;;;;;;;;;;5021313;28;20091;-80
2023/12/05 08:08:47;;;;;;;7.67;5.43;;;;;;;;;;5026104;28;20025;-81
2023/12/05 08:11:35;;;;;;;10.80;7.27;;;;;;;;;;5029945;28;20033;-80
2023/12/05 08:14:03;;;;;;;11.10;6.33;;;;;;;;;;5030223;28;20029;-81
2023/12/05 08:16:42;;;;;;;;;;;;;;;;;;;;;
2023/12/05 08:19:18;;;;;;;11.37;5.80;;;;;;;;;;5043639;28;20101;-81
2023/12/05 08:21:44;;;;;;;8.10;5.70;;;;;;;;;;5028398;28;20107;-80
2023/12/05 08:24:12;;;;;;;10.33;6.30;;;;;;;;;;5028553;28;20021;-81
2023/12/05 08:26:41;;;;;;;8.10;5.67;;;;;;;;;;5028837;28;20033;-80
2023/12/05 08:29:09;;;;;;;8.53;5.13;;;;;;;;;;5028314;28;20164;-81
2023/12/05 08:31:35;;;;;;;7.37;4.93;;;;;;;;;;5024933;28;20467;-81
2023/12/05 08:34:03;;;;;;;7.20;4.70;;;;;;;;;;5026395;28;20039;-81
2023/12/05 08:36:29;;;;;;;11.73;5.57;;;;;;;;;;5028465;28;20029;-81
2023/12/05 08:38:55;;;;;;;8.33;5.20;;;;;;;;;;5027710;28;20030;-81
2023/12/05 08:41:24;;;;;;;9.33;5.33;;;;;;;;;;5026831;28;20034;-80
2023/12/05 08:43:57;;;;;;;8.57;5.23;;;;;;;;;;5029172;28;20625;-81
2023/12/05 08:46:24;;;;;;;9.07;5.20;;;;;;;;;;5027649;28;20033;-80
2023/12/05 08:48:50;;;;;;;12.30;5.87;;;;;;;;;;5043920;28;20069;-80
2023/12/05 08:51:18;;;;;;;13.50;5.90;;;;;;;;;;5028646;28;20110;-81
2023/12/05 08:53:51;;;;;;;9.70;5.83;;;;;;;;;;5028094;28;20021;-80
2023/12/05 08:56:17;;;;;;;10.17;5.23;;;;;;;;;;5029302;28;20041;-79
2023/12/05 08:58:43;;;;;;;10.43;5.60;;;;;;;;;;5023041;28;20434;-79
2023/12/05 09:01:13;;;;;;;10.70;5.10;;;;;;;;;;5038532;28;20072;-81
2023/12/05 09:03:39;;;;;;;10.13;4.93;;;;;;;;;;5026222;28;20025;-78
2023/12/05 09:06:05;;;;;;;9.17;4.53;;;;;;;;;;5023924;28;20033;-81
2023/12/05 09:08:31;;;;;;;10.70;5.43;;;;;;;;;;5022985;28;20045;-80
2023/12/05 09:10:57;;;;;;;9.40;5.43;;;;;;;;;;5041021;28;20033;-81
2023/12/05 09:13:24;;;;;;;7.83;4.73;;;;;;;;;;5026047;28;20083;-79
2023/12/05 09:15:50;;;;;;;7.53;4.00;;;;;;;;;;5042675;28;20034;-81
2023/12/05 09:18:16;;;;;;;8.97;4.27;;;;;;;;;;5026263;28;20064;-81
2023/12/05 09:20:45;;;;;;;13.83;6.30;;;;;;;;;;5022064;28;20033;-79
2023/12/05 09:23:12;;;;;;;5.93;4.33;;;;;;;;;;5024333;28;20029;-78
2023/12/05 09:25:39;;;;;;;12.23;4.90;;;;;;;;;;5041018;28;20029;-81
2023/12/05 09:28:05;;;;;;;6.63;4.47;;;;;;;;;;5026611;28;20093;-81
2023/12/05 09:30:32;;;;;;;9.33;4.80;;;;;;;;;;5028290;28;20025;-81
2023/12/05 09:33:05;;;;;;;6.13;3.90;;;;;;;;;;5025650;28;20035;-81
2023/12/05 09:35:33;;;;;;;8.20;4.17;;;;;;;;;;5028153;28;20085;-80
2023/12/05 09:37:59;;;;;;;7.43;4.50;;;;;;;;;;5027054;28;20033;-80
2023/12/05 09:40:26;;;;;;;6.23;3.57;;;;;;;;;;5026998;28;20059;-80
2023/12/05 09:42:55;;;;;;;8.70;3.77;;;;;;;;;;5027948;28;20037;-81
2023/12/05 09:45:22;;;;;;;6.60;3.90;;;;;;;;;;5044970;28;20040;-80
2023/12/05 09:47:53;;;;;;;7.57;4.10;;;;;;;;;;5027031;28;20037;-81
2023/12/05 09:50:22;;;;;;;5.87;3.40;;;;;;;;;;5028601;28;20042;-80
2023/12/05 09:52:49;;;;;;;8.37;3.47;;;;;;;;;;5045451;28;20021;-81
2023/12/05 09:55:15;;;;;;;11.27;3.30;;;;;;;;;;5028653;28;20034;-81
2023/12/05 09:57:42;;;;;;;6.00;3.57;;;;;;;;;;5025550;28;20040;-80
2023/12/05 10:00:08;;;;;;;7.00;3.80;;;;;;;;;;5026934;28;20045;-80
2023/12/05 10:02:38;;;;;;;9.77;4.60;;;;;;;;;;5026266;28;20029;-80
2023/12/05 10:05:06;;;;;;;9.53;4.83;;;;;;;;;;5027530;28;20029;-81
2023/12/05 10:07:32;;;;;;;8.47;3.90;;;;;;;;;;5043363;28;20041;-81
2023/12/05 10:09:59;;;;;;;9.97;4.50;;;;;;;;;;5026976;28;20030;-80
2023/12/05 10:12:25;;;;;;;7.63;4.00;;;;;;;;;;5030030;28;20041;-81
2023/12/05 10:14:51;;;;;;;7.37;3.73;;;;;;;;;;5038225;28;20037;-80
2023/12/05 10:17:19;;;;;;;7.70;3.40;;;;;;;;;;5026473;28;20044;-77
2023/12/05 10:19:45;;;;;;;5.83;3.20;;;;;;;;;;5020433;28;20029;-80
2023/12/05 10:22:11;;;;;;;6.03;3.30;;;;;;;;;;5015500;28;20036;-78
2023/12/05 10:24:45;;;;;;;6.17;3.03;;;;;;;;;;5032238;28;20461;-80
2023/12/05 10:27:11;;;;;;;5.73;3.17;;;;;;;;;;5017766;28;20021;-81
2023/12/05 10:29:39;;;;;;;5.90;3.60;;;;;;;;;;5036683;28;20029;-80
2023/12/05 10:32:05;;;;;;;5.07;3.40;;;;;;;;;;5035943;28;20089;-79
2023/12/05 10:34:31;;;;;;;10.03;3.90;;;;;;;;;;5033737;28;20116;-80
2023/12/05 10:37:03;;;;;;;4.20;3.03;;;;;;;;;;5019713;28;20025;-80
2023/12/05 10:39:35;;;;;;;7.00;3.17;;;;;;;;;;5033238;28;20114;-79
2023/12/05 10:42:01;;;;;;;7.20;3.70;;;;;;;;;;5012672;28;20040;-80
2023/12/05 10:44:27;;;;;;;6.30;2.87;;;;;;;;;;5020552;28;20067;-80
2023/12/05 10:46:56;;;;;;;6.87;3.37;;;;;;;;;;5013951;28;20022;-80
2023/12/05 10:49:22;;;;;;;8.17;2.90;;;;;;;;;;5014117;28;20021;-80
2023/12/05 10:51:49;;;;;;;5.70;3.27;;;;;;;;;;5019335;28;20037;-80
2023/12/05 10:54:17;;;;;;;5.93;2.70;;;;;;;;;;5015654;28;20033;-80
2023/12/05 10:56:57;;;;;;;7.20;4.17;;;;;;;;;;5018299;28;20026;-80
2023/12/05 10:59:24;;;;;;;5.23;2.33;;;;;;;;;;5023296;28;20030;-80
2023/12/05 11:01:50;;;;;;;4.27;1.90;;;;;;;;;;5014055;28;20054;-80
2023/12/05 11:04:16;;;;;;;4.77;1.87;;;;;;;;;;5033609;28;20029;-80
2023/12/05 11:06:42;;;;;;;3.83;1.13;;;;;;;;;;5018267;28;20615;-79
2023/12/05 11:09:09;;;;;;;3.40;1.30;;;;;;;;;;5035234;28;20434;-79
2023/12/05 11:11:37;;;;;;;2.33;1.00;;;;;;;;;;5018479;28;20113;-79
2023/12/05 11:14:10;;;;;;;4.20;1.30;;;;;;;;;;5018184;28;20452;-80
2023/12/05 11:16:37;;;;;;;5.50;1.25;;;;;;;;;;5017707;28;20409;-79
2023/12/05 11:19:22;;;;;;;6.00;1.50;;;;;;;;;;5012092;28;20026;-80
2023/12/05 11:21:54;;;;;;;2.23;1.10;;;;;;;;;;5016505;28;20029;-80
2023/12/05 11:24:20;;;;;;;;;;;;;;;;;;5008935;28;20045;-80
2023/12/05 11:27:02;;;;;;;3.37;1.83;;;;;;;;;;5010072;28;19909;-80
2023/12/05 11:29:46;;;;;;;3.13;1.93;;;;;;;;;;5034845;28;20021;-80
2023/12/05 11:32:19;;;;;;;2.23;0.70;;;;;;;;;;5011383;28;20090;-80
2023/12/05 11:35:03;;;;;;;1.77;1.00;;;;;;;;;;5020528;28;20033;-79
2023/12/05 11:37:45;;;;;;;13.83;2.33;;;;;;;;;;5037535;28;20033;-80
2023/12/05 11:40:11;;;;;;;4.73;1.67;;;;;;;;;;5024243;28;20036;-79
2023/12/05 11:42:37;;;;;;;4.23;1.10;;;;;;;;;;5008403;28;20037;-79
2023/12/05 11:45:22;;;;;;;1.60;0.93;;;;;;;;;;5021143;28;20022;-79
2023/12/05 11:47:48;;;;;;;2.40;1.13;;;;;;;;;;5017225;28;20335;-80
2023/12/05 11:50:17;;;;;;;1.53;0.77;;;;;;;;;;5038930;28;20359;-79
2023/12/05 11:52:44;;;;;;;3.57;0.73;;;;;;;;;;5018124;28;20030;-79
2023/12/05 11:55:12;;;;;;;6.80;1.30;;;;;;;;;;5038312;28;20069;-79
2023/12/05 11:57:40;;;;;;;2.07;0.80;;;;;;;;;;5028114;28;20022;-79
2023/12/05 12:00:08;;;;;;;3.37;0.70;;;;;;;;;;5020871;28;20025;-80
2023/12/05 12:02:34;;;;;;;2.63;1.03;;;;;;;;;;5020505;28;20560;-79
2023/12/05 12:05:07;;;;;;;5.70;1.30;;;;;;;;;;5017281;28;20025;-79
2023/12/05 12:07:42;;;;;;;4.03;1.00;;;;;;;;;;5017580;28;20350;-79
2023/12/05 12:10:08;;;;;;;4.20;0.90;;;;;;;;;;5018626;28;20029;-79
2023/12/05 12:12:34;;;;;;;2.80;1.13;;;;;;;;;;5020789;28;20029;-79
2023/12/05 12:15:02;;;;;;;3.93;1.10;;;;;;;;;;5019672;28;20045;-79
2023/12/05 12:17:28;;;;;;;2.23;1.10;;;;;;;;;;5012418;28;20026;-79
2023/12/05 12:19:54;;;;;;;1.93;0.80;;;;;;;;;;5010573;28;20095;-79
2023/12/05 12:22:23;;;;;;;3.57;0.90;;;;;;;;;;5034924;28;20120;-79
2023/12/05 12:24:49;;;;;;;7.73;1.33;;;;;;;;;;5035316;28;20021;-79
2023/12/05 12:27:15;;;;;;;4.73;1.60;;;;;;;;;;5017186;28;20060;-79
2023/12/05 12:29:52;;;;;;;2.80;1.03;;;;;;;;;;5011891;28;20045;-79
2023/12/05 12:32:18;;;;;;;3.17;1.60;;;;;;;;;;5029608;28;20041;-79
2023/12/05 12:34:46;;;;;;;2.20;1.33;;;;;;;;;;5016425;28;20493;-79
2023/12/05 12:37:14;;;;;;;5.20;0.90;;;;;;;;;;5013257;28;20464;-79
2023/12/05 12:39:43;;;;;;;4.00;0.90;;;;;;;;;;5011197;28;20171;-79
2023/12/05 12:42:10;;;;;;;3.93;1.10;;;;;;;;;;5016435;28;20033;-79
2023/12/05 12:44:36;;;;;;;3.43;1.27;;;;;;;;;;5013649;28;20026;-79
2023/12/05 12:47:04;;;;;;;2.47;1.40;;;;;;;;;;5016688;28;20028;-79
2023/12/05 12:49:30;;;;;;;2.67;0.80;;;;;;;;;;5017004;28;20022;-79
2023/12/05 12:51:56;;;;;;;4.90;1.40;;;;;;;;;;5012911;28;20036;-79
2023/12/05 12:54:25;;;;;;;5.10;1.77;;;;;;;;;;5015060;28;20029;-79
2023/12/05 12:56:51;;;;;;;2.63;1.47;;;;;;;;;;5016940;28;20044;-79
2023/12/05 12:59:17;;;;;;;3.40;1.00;;;;;;;;;;5034190;28;20040;-79
2023/12/05 13:01:44;;;;;;;3.13;1.30;;;;;;;;;;5015662;28;20113;-79
2023/12/05 13:04:10;;;;;;;3.23;1.40;;;;;;;;;;5016310;28;20501;-79
2023/12/05 13:06:37;;;;;;;3.43;1.27;;;;;;;;;;5014926;28;20057;-79
2023/12/05 13:09:11;;;;;;;2.10;0.80;;;;;;;;;;5017232;28;20087;-79
2023/12/05 13:11:37;;;;;;;4.63;1.30;;;;;;;;;;5014710;28;20030;-79
2023/12/05 13:14:11;;;;;;;2.83;0.67;;;;;;;;;;5015965;28;20029;-79
2023/12/05 13:16:38;;;;;;;2.97;1.00;;;;;;;;;;5016362;28;20116;-79
2023/12/05 13:19:06;;;;;;;4.30;1.70;;;;;;;;;;5016122;28;20442;-79
2023/12/05 13:21:33;;;;;;;2.53;1.10;;;;;;;;;;5014286;28;20025;-79
2023/12/05 13:23:59;;;;;;;1.43;0.83;;;;;;;;;;5016136;28;21672;-79
2023/12/05 13:26:25;;;;;;;2.43;0.93;;;;;;;;;;5017207;28;20052;-79
2023/12/05 13:28:51;;;;;;;1.70;0.73;;;;;;;;;;5016072;28;20022;-78
2023/12/05 13:31:17;;;;;;;2.43;1.10;;;;;;;;;;5015553;28;20037;-79
2023/12/05 13:33:43;;;;;;;2.87;1.60;;;;;;;;;;5017803;28;20087;-79
2023/12/05 13:36:10;;;;;;;2.33;1.37;;;;;;;;;;5016215;28;20053;-78
2023/12/05 13:38:39;;;;;;;3.33;1.40;;;;;;;;;;5018060;28;20040;-78
2023/12/05 13:41:06;;;;;;;2.93;1.10;;;;;;;;;;5015172;28;20029;-79
2023/12/05 13:43:35;;;;;;;3.60;1.90;;;;;;;;;;5015856;28;20030;-79
2023/12/05 13:46:01;;;;;;;5.50;1.53;;;;;;;;;;5016017;28;20369;-79
2023/12/05 13:48:27;;;;;;;5.23;1.10;;;;;;;;;;5014638;28;20437;-79
2023/12/05 13:50:53;;;;;;;7.60;1.33;;;;;;;;;;5032014;28;20033;-79
2023/12/05 13:53:23;;;;;;;2.93;1.23;;;;;;;;;;5016032;28;20500;-79
2023/12/05 13:55:49;;;;;;;3.30;1.43;;;;;;;;;;5014967;28;20049;-79
2023/12/05 13:58:15;;;;;;;5.07;1.10;;;;;;;;;;5015206;28;20026;-79
2023/12/05 14:00:41;;;;;;;3.90;2.10;;;;;;;;;;5014974;28;20038;-79
2023/12/05 14:03:07;;;;;;;3.73;1.63;;;;;;;;;;5014754;28;20056;-79
2023/12/05 14:05:33;;;;;;;3.07;1.13;;;;;;;;;;5033123;28;20442;-78
2023/12/05 14:07:59;;;;;;;3.43;2.10;;;;;;;;;;5014166;28;20104;-78
2023/12/05 14:10:26;;;;;;;2.47;1.10;;;;;;;;;;5015860;28;20478;-78
2023/12/05 14:12:52;;;;;;;3.07;1.00;;;;;;;;;;5015856;28;20044;-79
2023/12/05 14:15:18;;;;;;;4.07;1.50;;;;;;;;;;5015511;28;20026;-79
2023/12/05 14:17:44;;;;;;;3.07;1.70;;;;;;;;;;5015814;28;20480;-79
2023/12/05 14:20:10;;;;;;;5.97;1.00;;;;;;;;;;5013501;28;20127;-78
2023/12/05 14:22:36;;;;;;;4.23;1.30;;;;;;;;;;5015314;28;20147;-79
2023/12/05 14:25:03;;;;;;;1.80;0.93;;;;;;;;;;5015298;28;20447;-79
2023/12/05 14:27:29;;;;;;;2.00;0.93;;;;;;;;;;5016021;28;20025;-79
2023/12/05 14:29:57;;;;;;;4.27;1.13;;;;;;;;;;5013398;28;20030;-78
2023/12/05 14:32:23;;;;;;;2.67;1.13;;;;;;;;;;5015684;28;20052;-79
2023/12/05 14:34:49;;;;;;;3.93;1.10;;;;;;;;;;5015504;28;20041;-79
2023/12/05 14:37:15;;;;;;;4.23;1.70;;;;;;;;;;5013392;28;20029;-79